< < Back
Terminal Aerodrome Forecast


Current Version              Previous Versions:   1  2  3  4  5  6  7  8  9  

Terminal Aerodrome Forecast

222
FTUS42 KGSP 241404 AAC
TAFAVL
TAF AMD
KAVL 241404Z 2414/2512 17010G19KT P6SM SCT025
     FM241700 21013G23KT P6SM SCT035
     FM242200 22009KT P6SM SCT250
     FM250000 25005KT P6SM SCT250
     FM250500 32005KT P6SM SCT250=

Latest METAR

068
SAUS70 KWBC 241600
MTRAVL
METAR KAVL 241554Z 19011G20KT 10SM CLR 17/11 A2977 RMK AO2 SLP067
T01720106


USA.gov is the U.S. government's official web portal to all federal, state and local government web resources and services.